createdAt,value
2023-04-04T00:00:32.692Z,51.57
2023-04-04T00:03:00.703Z,51.44
2023-04-04T00:05:28.833Z,51.56
2023-04-04T00:07:56.752Z,51.53
2023-04-04T00:10:25.988Z,51.52
2023-04-04T00:12:53.952Z,51.55
2023-04-04T00:15:22.178Z,51.57
2023-04-04T00:17:50.536Z,51.50
2023-04-04T00:20:18.685Z,51.50
2023-04-04T00:22:46.560Z,51.36
2023-04-04T00:25:14.620Z,51.36
2023-04-04T00:27:43.996Z,51.32
2023-04-04T00:30:13.492Z,51.27
2023-04-04T00:32:41.452Z,51.37
2023-04-04T00:35:09.928Z,51.31
2023-04-04T00:37:38.038Z,51.41
2023-04-04T00:40:07.080Z,51.24
2023-04-04T00:42:35.277Z,51.19
2023-04-04T00:45:04.846Z,51.26
2023-04-04T00:47:32.862Z,51.20
2023-04-04T00:50:00.837Z,51.10
2023-04-04T00:52:28.690Z,51.04
2023-04-04T00:54:56.660Z,51.02
2023-04-04T00:57:25.041Z,51.16
2023-04-04T00:59:52.884Z,51.19
2023-04-04T01:02:22.134Z,50.98
2023-04-04T01:04:50.110Z,50.95
2023-04-04T01:07:18.076Z,50.99
2023-04-04T01:09:46.097Z,51.04
2023-04-04T01:12:13.965Z,51.11
2023-04-04T01:14:41.881Z,51.17
2023-04-04T01:17:09.772Z,51.11
2023-04-04T01:19:41.311Z,51.12
2023-04-04T01:22:09.173Z,51.23
2023-04-04T01:24:37.197Z,51.37
2023-04-04T01:27:06.540Z,51.24
2023-04-04T01:29:34.494Z,51.27
2023-04-04T01:32:05.534Z,51.22
2023-04-04T01:34:36.173Z,51.20
2023-04-04T01:37:04.938Z,51.08
2023-04-04T01:39:34.047Z,51.20
2023-04-04T01:42:02.417Z,51.18
2023-04-04T01:44:31.695Z,51.06
2023-04-04T01:46:59.650Z,51.22
2023-04-04T01:49:27.834Z,51.22
2023-04-04T01:51:56.162Z,51.05
2023-04-04T01:54:24.251Z,51.07
2023-04-04T01:56:53.163Z,51.11
2023-04-04T01:59:21.070Z,51.06
2023-04-04T02:01:50.452Z,51.24
2023-04-04T02:04:18.431Z,51.05
2023-04-04T02:06:46.324Z,51.25
2023-04-04T02:09:14.431Z,51.45
2023-04-04T02:11:42.723Z,51.53
2023-04-04T02:14:10.601Z,51.43
2023-04-04T02:16:38.622Z,51.46
2023-04-04T02:19:07.954Z,51.56
2023-04-04T02:21:35.896Z,51.48
2023-04-04T02:24:04.118Z,51.50
2023-04-04T02:26:32.022Z,51.27
2023-04-04T02:28:59.908Z,51.28
2023-04-04T02:31:27.894Z,51.35
2023-04-04T02:33:56.015Z,51.25
2023-04-04T02:36:25.260Z,51.44
2023-04-04T02:38:53.132Z,51.30
2023-04-04T02:41:21.040Z,51.34
2023-04-04T02:43:48.914Z,51.47
2023-04-04T02:46:21.576Z,51.42
2023-04-04T02:48:50.529Z,51.56
2023-04-04T02:51:18.413Z,51.23
2023-04-04T02:53:48.058Z,51.43
2023-04-04T02:56:15.940Z,51.27
2023-04-04T02:58:43.845Z,51.19
2023-04-04T03:01:12.263Z,51.33
2023-04-04T03:03:40.416Z,51.49
2023-04-04T03:06:08.770Z,51.48
2023-04-04T03:08:37.227Z,51.55
2023-04-04T03:11:06.600Z,51.51
2023-04-04T03:13:34.420Z,51.53
2023-04-04T03:16:04.432Z,51.54
2023-04-04T03:18:33.437Z,51.57
2023-04-04T03:21:01.378Z,51.51
2023-04-04T03:23:29.300Z,51.31
2023-04-04T03:25:57.360Z,51.33
2023-04-04T03:28:26.611Z,51.30
2023-04-04T03:30:54.483Z,51.25
2023-04-04T03:33:22.442Z,51.33
2023-04-04T03:35:50.588Z,51.22
2023-04-04T03:38:18.631Z,51.47
2023-04-04T03:40:46.767Z,51.40
2023-04-04T03:43:14.755Z,51.38
2023-04-04T03:45:44.011Z,51.43
2023-04-04T03:48:11.934Z,51.42
2023-04-04T03:50:40.089Z,51.48
2023-04-04T03:53:09.079Z,51.56
2023-04-04T03:55:37.039Z,51.58
2023-04-04T03:58:05.027Z,51.65
2023-04-04T04:00:32.989Z,51.66
2023-04-04T04:03:02.327Z,51.58
2023-04-04T04:05:30.214Z,51.79
2023-04-04T04:07:58.124Z,51.75
2023-04-04T04:10:26.046Z,52.11
2023-04-04T04:12:53.971Z,52.17
2023-04-04T04:15:21.814Z,52.43
2023-04-04T04:17:49.762Z,52.65
2023-04-04T04:20:19.155Z,52.82
2023-04-04T04:22:47.371Z,53.05
2023-04-04T04:25:15.387Z,52.99
2023-04-04T04:27:43.313Z,53.11
2023-04-04T04:30:11.720Z,53.33
2023-04-04T04:32:39.661Z,53.25
2023-04-04T04:35:09.025Z,53.22
2023-04-04T04:37:38.451Z,53.36
2023-04-04T04:40:07.552Z,53.29
2023-04-04T04:42:35.915Z,53.46
2023-04-04T04:45:04.401Z,53.45
2023-04-04T04:47:32.803Z,53.54
2023-04-04T04:50:01.272Z,53.67
2023-04-04T04:52:31.691Z,53.52
2023-04-04T04:55:00.954Z,53.54
2023-04-04T04:57:28.889Z,53.42
2023-04-04T04:59:59.593Z,53.31
2023-04-04T05:02:27.746Z,53.25
2023-04-04T05:04:55.751Z,53.32
2023-04-04T05:07:23.612Z,53.17
2023-04-04T05:09:51.653Z,53.11
2023-04-04T05:12:20.881Z,53.35
2023-04-04T05:14:48.824Z,53.55
2023-04-04T05:17:16.776Z,53.76
2023-04-04T05:19:44.800Z,53.87
2023-04-04T05:22:12.726Z,53.95
2023-04-04T05:24:42.997Z,53.88
2023-04-04T05:27:11.233Z,54.31
2023-04-04T05:29:40.499Z,54.28
2023-04-04T05:32:08.469Z,54.28
2023-04-04T05:34:36.567Z,54.30
2023-04-04T05:37:04.571Z,54.24
2023-04-04T05:39:32.627Z,54.32
2023-04-04T05:42:00.496Z,54.54
2023-04-04T05:44:28.368Z,54.64
2023-04-04T05:46:57.825Z,54.62
2023-04-04T05:49:25.858Z,54.76
2023-04-04T05:51:56.565Z,54.66
2023-04-04T05:54:24.573Z,54.83
2023-04-04T05:56:52.580Z,54.76
2023-04-04T05:59:20.543Z,54.69
2023-04-04T06:01:48.457Z,54.51
2023-04-04T06:04:17.741Z,54.33
2023-04-04T06:06:45.886Z,54.34
2023-04-04T06:09:13.784Z,54.42
2023-04-04T06:11:41.623Z,54.29
2023-04-04T06:14:09.506Z,54.33
2023-04-04T06:16:37.593Z,54.28
2023-04-04T06:19:05.619Z,54.31
2023-04-04T06:21:35.075Z,54.18
2023-04-04T06:24:06.691Z,54.18
2023-04-04T06:26:35.090Z,54.21
2023-04-04T06:29:07.916Z,54.27
2023-04-04T06:31:41.063Z,54.04
2023-04-04T06:34:13.578Z,54.12
2023-04-04T06:36:43.113Z,54.10
2023-04-04T06:39:13.271Z,54.02
2023-04-04T06:41:41.754Z,53.84
2023-04-04T06:44:15.588Z,53.87
2023-04-04T06:46:43.717Z,53.90
2023-04-04T06:49:12.122Z,53.66
2023-04-04T06:51:42.606Z,53.80
2023-04-04T06:54:13.935Z,53.83
2023-04-04T06:56:44.001Z,53.75
2023-04-04T06:59:12.693Z,53.82
2023-04-04T07:01:45.755Z,53.67
2023-04-04T07:04:13.854Z,53.68
2023-04-04T07:06:44.081Z,53.71
2023-04-04T07:09:26.041Z,53.60
2023-04-04T07:11:57.419Z,53.47
2023-04-04T07:14:25.999Z,53.46
2023-04-04T07:19:31.776Z,53.24
2023-04-04T07:22:01.443Z,53.05
2023-04-04T07:24:30.988Z,53.01
2023-04-04T07:26:59.161Z,53.05
2023-04-04T07:29:27.464Z,52.98
2023-04-04T07:31:58.614Z,52.90
2023-04-04T07:34:27.342Z,52.97
2023-04-04T07:36:55.244Z,52.92
2023-04-04T07:39:26.821Z,52.93
2023-04-04T07:41:54.634Z,52.99
2023-04-04T07:44:22.489Z,52.94
2023-04-04T07:47:02.411Z,53.00
2023-04-04T07:49:36.973Z,53.07
2023-04-04T07:52:05.128Z,53.09
2023-04-04T07:54:34.433Z,53.08
2023-04-04T07:57:05.532Z,53.13
2023-04-04T07:59:33.494Z,53.27
2023-04-04T08:02:01.373Z,53.12
2023-04-04T08:04:29.296Z,53.19
2023-04-04T08:06:57.247Z,53.25
2023-04-04T08:09:31.433Z,53.05
2023-04-04T08:12:01.133Z,53.05
2023-04-04T08:14:29.550Z,52.72
2023-04-04T08:16:57.713Z,52.70
2023-04-04T08:19:25.581Z,52.62
2023-04-04T08:21:53.514Z,52.44
2023-04-04T08:24:22.683Z,52.66
2023-04-04T08:26:58.213Z,52.51
2023-04-04T08:29:34.548Z,52.62
2023-04-04T08:32:02.495Z,52.52
2023-04-04T08:34:30.364Z,52.36
2023-04-04T08:36:58.701Z,52.57
2023-04-04T08:39:27.130Z,52.20
2023-04-04T08:41:59.568Z,52.51
2023-04-04T08:44:27.578Z,52.18
2023-04-04T08:46:57.686Z,52.06
2023-04-04T08:49:25.669Z,51.80
2023-04-04T08:51:53.557Z,51.93
2023-04-04T08:54:21.941Z,51.92
2023-04-04T08:56:51.726Z,51.76
2023-04-04T08:59:21.062Z,51.71
2023-04-04T09:01:49.274Z,51.43
2023-04-04T09:04:21.891Z,51.61
2023-04-04T09:06:53.483Z,51.45
2023-04-04T09:09:23.177Z,51.24
2023-04-04T09:11:52.000Z,51.20
2023-04-04T09:14:20.385Z,51.36
2023-04-04T09:16:54.247Z,51.08
2023-04-04T09:19:26.766Z,50.86
2023-04-04T09:21:54.812Z,50.91
2023-04-04T09:24:22.665Z,50.74
2023-04-04T09:26:53.565Z,50.46
2023-04-04T09:29:21.988Z,50.59
2023-04-04T09:31:50.273Z,50.76
2023-04-04T09:34:19.541Z,50.27
2023-04-04T09:36:51.588Z,50.29
2023-04-04T09:39:20.779Z,50.27
2023-04-04T09:41:49.387Z,49.85
2023-04-04T09:44:18.374Z,49.75
2023-04-04T09:46:46.641Z,49.48
2023-04-04T09:49:21.383Z,49.68
2023-04-04T09:51:55.880Z,49.32
2023-04-04T09:54:29.581Z,49.01
2023-04-04T09:56:58.280Z,49.02
2023-04-04T09:59:26.238Z,48.82
2023-04-04T10:01:55.999Z,48.87
2023-04-04T10:04:27.100Z,48.32
2023-04-04T10:06:57.086Z,48.55
2023-04-04T10:09:28.082Z,48.10
2023-04-04T10:12:09.011Z,47.99
2023-04-04T10:14:37.233Z,47.76
2023-04-04T10:17:10.441Z,47.59
2023-04-04T10:19:38.679Z,47.47
2023-04-04T10:22:09.075Z,47.39
2023-04-04T10:24:39.294Z,47.20
2023-04-04T10:27:07.381Z,46.22
2023-04-04T10:29:35.254Z,46.16
2023-04-04T10:32:06.230Z,45.49
2023-04-04T10:34:42.146Z,45.87
2023-04-04T10:37:17.677Z,45.68
2023-04-04T10:39:50.836Z,45.24
2023-04-04T10:42:18.685Z,44.95
2023-04-04T10:44:46.987Z,44.99
2023-04-04T10:47:16.603Z,44.98
2023-04-04T10:49:45.211Z,44.28
2023-04-04T10:52:13.281Z,43.91
2023-04-04T10:54:43.997Z,43.88
2023-04-04T10:57:12.659Z,43.24
2023-04-04T10:59:58.679Z,43.39
2023-04-04T11:03:02.185Z,43.16
2023-04-04T11:05:33.002Z,43.05
2023-04-04T11:08:07.588Z,42.95
2023-04-04T11:10:38.006Z,43.20
2023-04-04T11:13:13.205Z,43.06
2023-04-04T11:15:52.946Z,42.86
2023-04-04T11:18:32.574Z,43.52
2023-04-04T11:21:02.944Z,43.88
2023-04-04T11:23:39.820Z,44.27
2023-04-04T11:26:10.892Z,44.51
2023-04-04T11:28:48.806Z,43.46
2023-04-04T11:31:30.737Z,43.24
2023-04-04T11:33:59.805Z,42.81
2023-04-04T11:36:54.691Z,41.77
2023-04-04T11:39:33.233Z,41.60
2023-04-04T11:42:04.634Z,41.05
2023-04-04T11:44:35.223Z,39.96
2023-04-04T11:47:05.291Z,39.73
2023-04-04T11:49:37.229Z,39.64
2023-04-04T11:52:05.731Z,39.62
2023-04-04T11:54:33.665Z,39.41
2023-04-04T11:57:03.676Z,39.69
2023-04-04T11:59:31.945Z,39.35
2023-04-04T12:02:00.487Z,38.92
2023-04-04T12:04:28.669Z,37.73
2023-04-04T12:06:56.976Z,37.72
2023-04-04T12:09:26.890Z,36.59
2023-04-04T12:11:54.878Z,36.39
2023-04-04T12:14:25.314Z,36.65
2023-04-04T12:16:53.857Z,37.23
2023-04-04T12:19:22.479Z,36.51
2023-04-04T12:21:51.090Z,35.71
2023-04-04T12:24:19.047Z,36.31
2023-04-04T12:26:47.439Z,36.79
2023-04-04T12:29:16.589Z,36.81
2023-04-04T12:31:46.448Z,36.92
2023-04-04T12:34:19.060Z,36.29
2023-04-04T12:36:48.248Z,36.15
2023-04-04T12:39:20.159Z,35.76
2023-04-04T12:41:55.052Z,35.62
2023-04-04T12:44:32.001Z,35.24
2023-04-04T12:47:06.431Z,34.81
2023-04-04T12:49:36.153Z,34.65
2023-04-04T12:52:05.482Z,34.38
2023-04-04T12:54:34.180Z,33.78
2023-04-04T12:57:04.357Z,32.90
2023-04-04T12:59:33.122Z,32.66
2023-04-04T13:02:03.658Z,32.88
2023-04-04T13:04:31.688Z,33.16
2023-04-04T13:07:00.513Z,33.62
2023-04-04T13:09:28.385Z,34.18
2023-04-04T13:12:01.933Z,33.43
2023-04-04T13:14:30.179Z,32.60
2023-04-04T13:17:08.364Z,32.23
2023-04-04T13:19:36.489Z,32.21
2023-04-04T13:22:04.338Z,32.74
2023-04-04T13:24:32.329Z,32.34
2023-04-04T13:27:00.171Z,32.35
2023-04-04T13:29:28.060Z,32.63
2023-04-04T13:31:56.546Z,31.98
2023-04-04T13:34:26.836Z,31.98
2023-04-04T13:36:56.326Z,31.83
2023-04-04T13:39:24.310Z,31.63
2023-04-04T13:41:52.240Z,30.99
2023-04-04T13:44:20.121Z,30.99
2023-04-04T13:46:48.087Z,30.95
2023-04-04T13:49:16.011Z,30.82
2023-04-04T13:51:45.307Z,30.45
2023-04-04T13:54:13.222Z,30.19
2023-04-04T13:56:41.152Z,30.89
2023-04-04T13:59:09.270Z,30.99
2023-04-04T14:01:37.470Z,31.41
2023-04-04T14:04:13.222Z,31.41
2023-04-04T14:06:49.914Z,30.56
2023-04-04T14:09:17.834Z,29.80
2023-04-04T14:11:46.464Z,30.15
2023-04-04T14:14:14.336Z,30.17
2023-04-04T14:16:42.305Z,30.11
2023-04-04T14:19:10.207Z,30.25
2023-04-04T14:21:38.153Z,29.89
2023-04-04T14:24:08.261Z,30.01
2023-04-04T14:26:37.660Z,30.24
2023-04-04T14:29:05.642Z,30.24
2023-04-04T14:31:44.126Z,30.04
2023-04-04T14:34:12.422Z,28.78
2023-04-04T14:36:40.311Z,28.12
2023-04-04T14:39:09.635Z,27.73
2023-04-04T14:41:37.536Z,28.25
2023-04-04T14:44:05.466Z,28.30
2023-04-04T14:46:34.074Z,29.22
2023-04-04T14:49:03.172Z,29.98
2023-04-04T14:51:31.390Z,30.12
2023-04-04T14:53:59.737Z,30.12
2023-04-04T14:56:29.012Z,30.72
2023-04-04T14:58:57.149Z,30.37
2023-04-04T15:01:25.136Z,30.67
2023-04-04T15:03:56.340Z,30.68
2023-04-04T15:06:39.158Z,31.10
2023-04-04T15:09:12.786Z,31.61
2023-04-04T15:11:42.483Z,32.43
2023-04-04T15:14:10.468Z,32.98
2023-04-04T15:16:38.645Z,33.39
2023-04-04T15:19:06.557Z,33.66
2023-04-04T15:21:34.817Z,33.81
2023-04-04T15:24:02.694Z,33.97
2023-04-04T15:26:30.895Z,34.22
2023-04-04T15:29:00.166Z,34.35
2023-04-04T15:31:28.379Z,33.71
2023-04-04T15:33:59.222Z,33.73
2023-04-04T15:36:28.735Z,33.03
2023-04-04T15:38:56.836Z,32.54
2023-04-04T15:41:32.176Z,32.42
2023-04-04T15:44:08.151Z,32.68
2023-04-04T15:46:36.109Z,32.62
2023-04-04T15:49:04.235Z,32.57
2023-04-04T15:51:32.358Z,33.21
2023-04-04T15:54:00.390Z,33.42
2023-04-04T15:56:28.753Z,32.98
2023-04-04T15:58:56.818Z,32.77
2023-04-04T16:01:26.152Z,32.84
2023-04-04T16:03:54.155Z,33.16
2023-04-04T16:06:22.149Z,33.71
2023-04-04T16:08:50.172Z,34.29
2023-04-04T16:11:18.762Z,34.68
2023-04-04T16:13:46.936Z,34.88
2023-04-04T16:16:15.121Z,35.10
2023-04-04T16:18:44.494Z,35.41
2023-04-04T16:21:12.368Z,35.62
2023-04-04T16:23:40.809Z,35.83
2023-04-04T16:26:09.415Z,36.33
2023-04-04T16:28:37.441Z,36.33
2023-04-04T16:31:05.822Z,36.48
2023-04-04T16:33:33.887Z,36.70
2023-04-04T16:36:03.154Z,37.11
2023-04-04T16:38:31.328Z,36.75
2023-04-04T16:41:01.240Z,36.31
2023-04-04T16:43:29.216Z,35.61
2023-04-04T16:45:57.070Z,34.07
2023-04-04T16:48:24.989Z,33.37
2023-04-04T16:50:52.918Z,33.11
2023-04-04T16:53:22.632Z,33.09
2023-04-04T16:55:50.539Z,33.69
2023-04-04T16:58:20.947Z,33.90
2023-04-04T17:00:48.911Z,34.43
2023-04-04T17:03:16.865Z,35.34
2023-04-04T17:05:44.740Z,35.44
2023-04-04T17:08:12.652Z,35.91
2023-04-04T17:10:42.318Z,36.28
2023-04-04T17:13:10.488Z,36.52
2023-04-04T17:15:38.442Z,36.86
2023-04-04T17:18:07.112Z,37.27
2023-04-04T17:20:35.199Z,37.47
2023-04-04T17:23:03.089Z,37.56
2023-04-04T17:25:31.300Z,37.92
2023-04-04T17:28:01.031Z,37.93
2023-04-04T17:30:29.094Z,37.76
2023-04-04T17:32:57.226Z,37.77
2023-04-04T17:35:25.338Z,37.98
2023-04-04T17:37:53.258Z,37.90
2023-04-04T17:40:21.371Z,37.88
2023-04-04T17:42:49.256Z,37.85
2023-04-04T17:45:18.892Z,37.61
2023-04-04T17:47:47.192Z,37.57
2023-04-04T17:50:15.935Z,38.02
2023-04-04T17:52:43.977Z,38.16
2023-04-04T17:55:11.927Z,38.57
2023-04-04T17:57:40.971Z,38.63
2023-04-04T18:00:10.981Z,39.04
2023-04-04T18:02:40.461Z,39.03
2023-04-04T18:05:08.983Z,39.18
2023-04-04T18:07:36.871Z,39.69
2023-04-04T18:10:05.169Z,39.53
2023-04-04T18:12:35.284Z,40.17
2023-04-04T18:15:03.858Z,40.07
2023-04-04T18:17:33.404Z,40.56
2023-04-04T18:20:04.275Z,40.61
2023-04-04T18:22:32.419Z,41.11
2023-04-04T18:25:00.659Z,41.11
2023-04-04T18:27:28.584Z,41.33
2023-04-04T18:29:56.498Z,41.32
2023-04-04T18:32:26.396Z,41.41
2023-04-04T18:34:54.384Z,41.67
2023-04-04T18:37:23.648Z,42.16
2023-04-04T18:39:51.934Z,41.84
2023-04-04T18:42:19.926Z,42.25
2023-04-04T18:44:47.788Z,42.15
2023-04-04T18:47:15.834Z,42.47
2023-04-04T18:49:44.035Z,42.46
2023-04-04T18:52:11.954Z,42.16
2023-04-04T18:54:41.338Z,42.41
2023-04-04T18:57:09.281Z,42.88
2023-04-04T18:59:37.187Z,42.72
2023-04-04T19:02:05.036Z,42.84
2023-04-04T19:04:33.102Z,43.06
2023-04-04T19:07:02.738Z,43.63
2023-04-04T19:09:30.928Z,43.84
2023-04-04T19:12:00.813Z,43.83
2023-04-04T19:14:29.280Z,43.80
2023-04-04T19:16:57.265Z,43.80
2023-04-04T19:19:25.167Z,43.70
2023-04-04T19:21:53.033Z,43.99
2023-04-04T19:24:21.391Z,44.33
2023-04-04T19:26:49.540Z,44.49
2023-04-04T19:29:20.814Z,44.67
2023-04-04T19:31:48.943Z,44.68
2023-04-04T19:34:17.495Z,44.64
2023-04-04T19:36:45.474Z,44.97
2023-04-04T19:39:13.422Z,44.92
2023-04-04T19:41:42.056Z,44.95
2023-04-04T19:44:18.405Z,45.05
2023-04-04T19:46:47.744Z,44.95
2023-04-04T19:49:16.522Z,45.10
2023-04-04T19:51:51.447Z,44.95
2023-04-04T19:54:22.585Z,44.99
2023-04-04T19:56:50.786Z,45.07
2023-04-04T19:59:59.393Z,45.20
2023-04-04T20:02:54.374Z,45.43
2023-04-04T20:05:58.977Z,45.20
2023-04-04T20:08:46.619Z,45.51
2023-04-04T20:11:14.991Z,45.29
2023-04-04T20:13:43.100Z,45.34
2023-04-04T20:16:12.511Z,45.41
2023-04-04T20:18:43.607Z,45.38
2023-04-04T20:21:13.223Z,45.58
2023-04-04T20:23:43.444Z,45.27
2023-04-04T20:26:14.508Z,45.60
2023-04-04T20:28:42.571Z,45.39
2023-04-04T20:31:12.409Z,45.38
2023-04-04T20:33:41.844Z,45.42
2023-04-04T20:36:11.681Z,45.54
2023-04-04T20:38:40.856Z,45.33
2023-04-04T20:41:17.255Z,45.61
2023-04-04T20:43:52.646Z,45.32
2023-04-04T20:46:21.443Z,45.47
2023-04-04T20:48:51.117Z,45.55
2023-04-04T20:51:27.957Z,45.43
2023-04-04T20:53:56.884Z,45.46
2023-04-04T20:56:52.360Z,45.44
2023-04-04T20:59:29.234Z,45.46
2023-04-04T21:01:58.001Z,45.59
2023-04-04T21:04:28.594Z,45.68
2023-04-04T21:06:57.370Z,45.57
2023-04-04T21:09:25.345Z,45.84
2023-04-04T21:11:53.288Z,45.88
2023-04-04T21:14:23.955Z,45.76
2023-04-04T21:16:51.841Z,45.88
2023-04-04T21:19:21.286Z,45.94
2023-04-04T21:21:51.427Z,46.25
2023-04-04T21:24:19.270Z,46.15
2023-04-04T21:26:47.937Z,46.18
2023-04-04T21:29:21.345Z,46.49
2023-04-04T21:31:53.928Z,46.58
2023-04-04T21:34:22.758Z,46.53
2023-04-04T21:36:55.219Z,46.55
2023-04-04T21:39:23.836Z,46.77
2023-04-04T21:41:52.861Z,46.92
2023-04-04T21:44:20.836Z,47.07
2023-04-04T21:46:49.405Z,46.92
2023-04-04T21:49:17.445Z,47.01
2023-04-04T21:51:45.478Z,47.17
2023-04-04T21:54:15.019Z,47.01
2023-04-04T21:56:42.871Z,46.92
2023-04-04T21:59:10.936Z,47.16
2023-04-04T22:01:39.195Z,47.06
2023-04-04T22:04:07.121Z,47.22
2023-04-04T22:06:35.031Z,47.22
2023-04-04T22:09:03.941Z,47.23
2023-04-04T22:11:34.808Z,47.18
2023-04-04T22:14:07.709Z,47.23
2023-04-04T22:16:39.842Z,47.24
2023-04-04T22:19:11.060Z,46.69
2023-04-04T22:21:48.501Z,47.16
2023-04-04T22:24:18.681Z,47.06
2023-04-04T22:26:50.460Z,47.11
2023-04-04T22:29:18.831Z,47.21
2023-04-04T22:31:46.816Z,47.23
2023-04-04T22:34:15.525Z,47.25
2023-04-04T22:36:44.096Z,47.25
2023-04-04T22:39:16.456Z,47.19
2023-04-04T22:41:45.134Z,47.38
2023-04-04T22:44:15.078Z,47.19
2023-04-04T22:46:43.239Z,47.30
2023-04-04T22:49:11.104Z,47.48
2023-04-04T22:51:45.070Z,47.44
2023-04-04T22:54:14.430Z,47.59
2023-04-04T22:56:42.493Z,47.38
2023-04-04T22:59:10.467Z,47.62
2023-04-04T23:01:39.919Z,47.54
2023-04-04T23:04:08.318Z,47.86
2023-04-04T23:06:38.463Z,47.76
2023-04-04T23:09:07.600Z,47.89
2023-04-04T23:11:35.550Z,47.89
2023-04-04T23:14:08.510Z,48.01
2023-04-04T23:16:36.669Z,48.02
2023-04-04T23:19:05.919Z,48.06
2023-04-04T23:21:33.886Z,48.24
2023-04-04T23:24:01.865Z,48.13
2023-04-04T23:26:29.744Z,48.15
2023-04-04T23:28:57.597Z,48.35
2023-04-04T23:31:25.923Z,48.31
2023-04-04T23:33:53.826Z,48.08
2023-04-04T23:36:23.102Z,48.32
2023-04-04T23:38:51.092Z,48.32
2023-04-04T23:41:19.010Z,48.43
2023-04-04T23:43:47.094Z,48.45
2023-04-04T23:46:15.526Z,48.35
2023-04-04T23:48:43.503Z,48.41
2023-04-04T23:51:12.165Z,48.54
2023-04-04T23:53:41.444Z,48.57
2023-04-04T23:56:09.411Z,48.74
2023-04-04T23:58:38.173Z,48.77
